RYR118 EDDB-EKCH
Flight info
| Callsign | RYR118 |
|---|---|
| Flight time | N/A |
| Altitude | 26000 |
| Route | BIKPO1A/24R BIKPO DCT GERGA M725 RENKI Y89 USEDU M602 PENET T298 MONAK |
| Aircraft | B737/M-SDE2E3FGHIRWXY/LB1 |
Departure
| Time | N/A |
|---|---|
| Airport | Berlin Brandenburg Airport (EDDB) |
Arrival
| Time | 2026-05-03 20:42 |
|---|---|
| Airport | Copenhagen Kastrup Airport (EKCH) |
| Time | Latitude | Longitude | Altitude | Speed | Heading |
|---|---|---|---|---|---|
| 2026-05-03 20:15 | 54.25331 | 13.47816 | 33877 ft | 444 kts | 312° |
| 2026-05-03 20:15 | 54.29832 | 13.40520 | 33882 ft | 444 kts | 311° |
| 2026-05-03 20:16 | 54.34287 | 13.33237 | 33869 ft | 444 kts | 311° |
| 2026-05-03 20:16 | 54.38737 | 13.25872 | 33855 ft | 444 kts | 311° |
| 2026-05-03 20:17 | 54.43174 | 13.18504 | 33850 ft | 443 kts | 311° |
| 2026-05-03 20:17 | 54.47636 | 13.11074 | 32951 ft | 449 kts | 311° |
| 2026-05-03 20:17 | 54.49844 | 13.07384 | 32156 ft | 447 kts | 311° |
| 2026-05-03 20:18 | 54.52075 | 13.03648 | 31339 ft | 447 kts | 311° |
| 2026-05-03 20:18 | 54.54315 | 12.99889 | 30447 ft | 448 kts | 311° |
| 2026-05-03 20:18 | 54.56559 | 12.96116 | 29474 ft | 451 kts | 310° |
| 2026-05-03 20:18 | 54.58801 | 12.92343 | 28712 ft | 447 kts | 311° |
| 2026-05-03 20:19 | 54.60985 | 12.88666 | 28002 ft | 442 kts | 311° |
| 2026-05-03 20:19 | 54.63173 | 12.84975 | 27324 ft | 436 kts | 311° |
| 2026-05-03 20:19 | 54.65331 | 12.81324 | 26632 ft | 431 kts | 311° |
| 2026-05-03 20:19 | 54.67460 | 12.77718 | 25969 ft | 426 kts | 311° |
| 2026-05-03 20:20 | 54.69575 | 12.74130 | 25315 ft | 422 kts | 311° |
| 2026-05-03 20:20 | 54.71638 | 12.70627 | 24673 ft | 418 kts | 311° |
| 2026-05-03 20:20 | 54.73715 | 12.67097 | 23985 ft | 416 kts | 311° |
| 2026-05-03 20:20 | 54.75775 | 12.63595 | 23300 ft | 413 kts | 311° |
| 2026-05-03 20:21 | 54.77829 | 12.60100 | 22555 ft | 410 kts | 311° |
| 2026-05-03 20:21 | 54.79854 | 12.56653 | 21887 ft | 405 kts | 311° |
| 2026-05-03 20:21 | 54.81831 | 12.53285 | 21236 ft | 401 kts | 311° |
| 2026-05-03 20:21 | 54.83812 | 12.49904 | 20571 ft | 397 kts | 310° |
| 2026-05-03 20:22 | 54.85772 | 12.46556 | 19914 ft | 394 kts | 310° |
| 2026-05-03 20:22 | 54.87716 | 12.43230 | 19266 ft | 390 kts | 310° |
| 2026-05-03 20:22 | 54.89646 | 12.39922 | 18629 ft | 388 kts | 310° |
| 2026-05-03 20:22 | 54.91777 | 12.36982 | 17895 ft | 396 kts | 327° |
| 2026-05-03 20:23 | 54.94421 | 12.35481 | 17178 ft | 404 kts | 348° |
| 2026-05-03 20:23 | 54.97212 | 12.35626 | 16522 ft | 410 kts | 8° |
| 2026-05-03 20:23 | 54.99882 | 12.37370 | 15856 ft | 412 kts | 30° |
| 2026-05-03 20:23 | 55.02267 | 12.40120 | 15195 ft | 409 kts | 33° |
| 2026-05-03 20:24 | 55.04617 | 12.42951 | 14548 ft | 407 kts | 34° |
| 2026-05-03 20:24 | 55.06918 | 12.45725 | 13895 ft | 406 kts | 33° |
| 2026-05-03 20:24 | 55.09244 | 12.48504 | 13191 ft | 404 kts | 33° |
| 2026-05-03 20:24 | 55.11575 | 12.51263 | 12512 ft | 401 kts | 33° |
| 2026-05-03 20:25 | 55.13884 | 12.53981 | 11875 ft | 397 kts | 33° |
| 2026-05-03 20:25 | 55.16154 | 12.56649 | 11480 ft | 387 kts | 33° |
| 2026-05-03 20:25 | 55.18321 | 12.59197 | 11308 ft | 372 kts | 33° |
| 2026-05-03 20:25 | 55.20428 | 12.61679 | 11143 ft | 358 kts | 33° |
| 2026-05-03 20:26 | 55.22463 | 12.64077 | 10975 ft | 345 kts | 32° |
| 2026-05-03 20:26 | 55.24566 | 12.65952 | 10636 ft | 336 kts | 16° |
| 2026-05-03 20:26 | 55.26756 | 12.67158 | 10268 ft | 331 kts | 13° |
| 2026-05-03 20:26 | 55.28953 | 12.68306 | 9981 ft | 325 kts | 13° |
| 2026-05-03 20:27 | 55.31081 | 12.69457 | 9781 ft | 316 kts | 14° |
| 2026-05-03 20:27 | 55.33182 | 12.70631 | 9379 ft | 315 kts | 15° |
| 2026-05-03 20:27 | 55.35259 | 12.71811 | 9010 ft | 312 kts | 15° |
| 2026-05-03 20:27 | 55.37319 | 12.72987 | 8697 ft | 308 kts | 15° |
| 2026-05-03 20:28 | 55.39337 | 12.74144 | 8431 ft | 302 kts | 15° |
| 2026-05-03 20:28 | 55.41322 | 12.75282 | 8175 ft | 298 kts | 15° |
| 2026-05-03 20:28 | 55.43264 | 12.76394 | 7935 ft | 297 kts | 15° |
| 2026-05-03 20:28 | 55.45237 | 12.77526 | 7690 ft | 298 kts | 15° |
| 2026-05-03 20:29 | 55.47219 | 12.78663 | 7436 ft | 300 kts | 15° |
| 2026-05-03 20:29 | 55.49213 | 12.79810 | 7181 ft | 301 kts | 16° |
| 2026-05-03 20:29 | 55.51201 | 12.80955 | 6926 ft | 300 kts | 16° |
| 2026-05-03 20:29 | 55.53171 | 12.82091 | 6661 ft | 296 kts | 16° |
| 2026-05-03 20:30 | 55.55118 | 12.83215 | 6422 ft | 292 kts | 16° |
| 2026-05-03 20:30 | 55.57015 | 12.84419 | 6168 ft | 292 kts | 20° |
| 2026-05-03 20:30 | 55.58895 | 12.85782 | 5931 ft | 292 kts | 21° |
| 2026-05-03 20:30 | 55.60772 | 12.87159 | 5669 ft | 291 kts | 21° |
| 2026-05-03 20:31 | 55.62642 | 12.88582 | 5420 ft | 291 kts | 28° |
| 2026-05-03 20:31 | 55.63732 | 12.89956 | 5314 ft | 287 kts | 41° |
| 2026-05-03 20:31 | 55.65679 | 12.93089 | 5044 ft | 284 kts | 43° |
| 2026-05-03 20:31 | 55.67143 | 12.95440 | 4821 ft | 283 kts | 42° |
| 2026-05-03 20:32 | 55.68120 | 12.96990 | 4653 ft | 283 kts | 42° |
| 2026-05-03 20:32 | 55.70092 | 13.00090 | 4303 ft | 280 kts | 43° |
| 2026-05-03 20:32 | 55.71057 | 13.01604 | 4141 ft | 276 kts | 42° |
| 2026-05-03 20:32 | 55.72471 | 13.03834 | 4019 ft | 266 kts | 43° |
| 2026-05-03 20:33 | 55.73843 | 13.05916 | 4003 ft | 253 kts | 40° |
| 2026-05-03 20:33 | 55.74900 | 13.08208 | 3985 ft | 234 kts | 71° |
| 2026-05-03 20:33 | 55.75153 | 13.10945 | 3995 ft | 220 kts | 105° |
| 2026-05-03 20:33 | 55.74557 | 13.13288 | 4003 ft | 204 kts | 141° |
| 2026-05-03 20:34 | 55.73362 | 13.14465 | 4011 ft | 194 kts | 176° |
| 2026-05-03 20:34 | 55.72070 | 13.14079 | 4000 ft | 191 kts | 211° |
| 2026-05-03 20:34 | 55.71082 | 13.12580 | 4013 ft | 182 kts | 224° |
| 2026-05-03 20:34 | 55.70227 | 13.10996 | 4002 ft | 175 kts | 225° |
| 2026-05-03 20:35 | 55.69412 | 13.09454 | 3991 ft | 172 kts | 225° |
| 2026-05-03 20:35 | 55.68599 | 13.07901 | 4006 ft | 172 kts | 225° |
| 2026-05-03 20:35 | 55.67858 | 13.06228 | 3993 ft | 176 kts | 245° |
| 2026-05-03 20:35 | 55.67820 | 13.04061 | 4008 ft | 185 kts | 284° |
| 2026-05-03 20:36 | 55.68642 | 13.02237 | 4000 ft | 200 kts | 324° |
| 2026-05-03 20:36 | 55.69939 | 13.01275 | 4024 ft | 202 kts | 324° |
| 2026-05-03 20:36 | 55.70926 | 12.99621 | 4015 ft | 194 kts | 300° |
| 2026-05-03 20:36 | 55.71724 | 12.97643 | 3876 ft | 192 kts | 298° |
| 2026-05-03 20:37 | 55.72468 | 12.95758 | 3937 ft | 188 kts | 297° |
| 2026-05-03 20:37 | 55.73006 | 12.93694 | 4023 ft | 184 kts | 282° |
| 2026-05-03 20:37 | 55.73424 | 12.91516 | 4025 ft | 185 kts | 280° |
| 2026-05-03 20:37 | 55.73620 | 12.89317 | 4029 ft | 178 kts | 270° |
| 2026-05-03 20:38 | 55.73745 | 12.87128 | 4035 ft | 177 kts | 270° |
| 2026-05-03 20:38 | 55.73754 | 12.84979 | 4023 ft | 170 kts | 254° |
| 2026-05-03 20:38 | 55.73159 | 12.83220 | 3408 ft | 179 kts | 217° |
| 2026-05-03 20:38 | 55.72166 | 12.81799 | 2691 ft | 188 kts | 222° |
| 2026-05-03 20:39 | 55.71229 | 12.80261 | 2340 ft | 176 kts | 221° |
| 2026-05-03 20:39 | 55.70348 | 12.78857 | 2090 ft | 164 kts | 220° |
| 2026-05-03 20:39 | 55.69508 | 12.77542 | 1877 ft | 159 kts | 220° |
| 2026-05-03 20:39 | 55.68694 | 12.76280 | 1731 ft | 148 kts | 219° |
| 2026-05-03 20:40 | 55.67945 | 12.75121 | 1478 ft | 139 kts | 220° |
| 2026-05-03 20:40 | 55.67226 | 12.74009 | 1300 ft | 134 kts | 219° |
| 2026-05-03 20:40 | 55.66513 | 12.72906 | 1138 ft | 138 kts | 219° |
| 2026-05-03 20:40 | 55.65784 | 12.71777 | 922 ft | 140 kts | 220° |
| 2026-05-03 20:41 | 55.65053 | 12.70645 | 762 ft | 139 kts | 220° |
| 2026-05-03 20:41 | 55.64324 | 12.69513 | 557 ft | 142 kts | 221° |
| 2026-05-03 20:41 | 55.63584 | 12.68359 | 333 ft | 140 kts | 222° |
| 2026-05-03 20:41 | 55.62850 | 12.67230 | 142 ft | 140 kts | 223° |
| 2026-05-03 20:42 | 55.62123 | 12.66092 | 16 ft | 135 kts | 220° |
| 2026-05-03 20:42 | 55.61536 | 12.65202 | 17 ft | 68 kts | 220° |
| 2026-05-03 20:42 | 55.61307 | 12.64805 | 21 ft | 40 kts | 239° |
| 2026-05-03 20:42 | 55.61213 | 12.64401 | 19 ft | 28 kts | 251° |
| 2026-05-03 20:43 | 55.61195 | 12.64311 | 17 ft | 0 kts | 251° |